Time;durP1;ratioP1;P1;durP2;ratioP2;P2;SDS_P1;SDS_P2;PMS_P1;PMS_P2;Temp;Humidity;BMP_temperature;BMP_pressure;BME280_temperature;BME280_humidity;BME280_pressure;Samples;Min_cycle;Max_cycle;Signal;HPM_P1;HPM_P2
2023/01/30 00:01:30;;;;;;;;;;;;;;;27.18;53.99;101229.25;5082658;27;70080;-34
2023/01/30 00:04:00;;;;;;;;;;;;;;;27.14;53.73;101230.63;5084940;27;66586;-35
2023/01/30 00:06:31;;;;;;;;;;;;;;;27.09;52.41;101233.03;5061518;28;70695;-34
2023/01/30 00:09:01;;;;;;;;;;;;;;;27.05;52.20;101231.75;5083810;27;66883;-33
2023/01/30 00:11:32;;;;;;;;;;;;;;;27.01;51.88;101241.22;5057918;27;70359;-33
2023/01/30 00:14:02;;;;;;;;;;;;;;;27.01;51.68;101235.81;5081511;27;66394;-34
2023/01/30 00:16:34;;;;;;;;;;;;;;;26.73;48.58;101241.00;5076211;27;70279;-33
2023/01/30 00:19:05;;;;;;;;;;;;;;;26.63;49.31;101254.72;5075965;27;66891;-34
2023/01/30 00:21:36;;;;;;;;;;;;;;;26.65;49.31;101260.75;5066753;27;71268;-32
2023/01/30 00:24:06;;;;;;;;;;;;;;;26.66;50.51;101254.38;5077625;27;66949;-33
2023/01/30 00:26:38;;;;;;;;;;;;;;;26.76;51.52;101264.03;5081559;27;70224;-33
2023/01/30 00:29:09;;;;;;;;;;;;;;;26.82;52.08;101269.50;5060052;28;66695;-36
2023/01/30 00:31:40;;;;;;;;;;;;;;;26.81;52.46;101267.84;5088330;27;70815;-36
2023/01/30 00:34:11;;;;;;;;;;;;;;;26.86;52.48;101275.38;5063625;27;66419;-36
2023/01/30 00:36:41;;;;;;;;;;;;;;;26.89;52.58;101277.69;5088351;27;69451;-36
2023/01/30 00:39:13;;;;;;;;;;;;;;;26.92;52.57;101275.47;5079169;27;65326;-36
2023/01/30 00:47:22;;;;;;;;;;;;;;;27.01;52.45;101284.28;5084961;27;70722;-36
2023/01/30 00:49:54;;;;;;;;;;;;;;;27.02;52.38;101285.94;5066531;27;66755;-38
2023/01/30 00:52:25;;;;;;;;;;;;;;;27.03;52.23;101290.34;5076663;27;69264;-36
2023/01/30 00:54:56;;;;;;;;;;;;;;;27.06;52.27;101289.97;5085683;27;66963;-37
2023/01/30 00:57:26;;;;;;;;;;;;;;;27.08;52.21;101279.00;5080017;27;69614;-37
2023/01/30 00:59:57;;;;;;;;;;;;;;;27.09;52.21;101281.50;5070662;27;66369;-37
2023/01/30 01:02:28;;;;;;;;;;;;;;;27.10;52.40;101295.81;5068061;27;70030;-37
2023/01/30 01:04:59;;;;;;;;;;;;;;;27.10;52.05;101293.09;5083752;27;67265;-37
2023/01/30 01:07:30;;;;;;;;;;;;;;;27.10;52.04;101288.56;5079513;27;71099;-37
2023/01/30 01:10:01;;;;;;;;;;;;;;;27.12;52.33;101313.44;5074833;28;66664;-37
2023/01/30 01:12:31;;;;;;;;;;;;;;;27.13;52.12;101309.72;5079299;28;70169;-36
2023/01/30 01:15:03;;;;;;;;;;;;;;;27.15;52.09;101318.47;5045161;28;66196;-37
2023/01/30 01:17:33;;;;;;;;;;;;;;;27.15;52.16;101318.47;5062604;28;70427;-36
2023/01/30 01:20:05;;;;;;;;;;;;;;;27.16;52.25;101324.72;5056663;28;65515;-36
2023/01/30 01:22:35;;;;;;;;;;;;;;;27.16;52.05;101320.19;5059313;27;70014;-36
2023/01/30 01:25:06;;;;;;;;;;;;;;;27.16;52.18;101322.88;5082214;27;66415;-34
2023/01/30 01:27:37;;;;;;;;;;;;;;;27.16;52.36;101330.97;5079988;27;70340;-37
2023/01/30 01:30:08;;;;;;;;;;;;;;;27.15;52.56;101326.53;5077524;27;65995;-37
2023/01/30 01:32:38;;;;;;;;;;;;;;;27.17;52.11;101332.63;5056753;28;70921;-37
2023/01/30 01:35:10;;;;;;;;;;;;;;;27.18;52.39;101331.59;5059291;28;66628;-37
2023/01/30 01:37:41;;;;;;;;;;;;;;;27.20;52.38;101333.28;5082931;27;70489;-37
2023/01/30 01:43:22;;;;;;;;;;;;;;;27.17;51.72;101338.00;5082766;27;69936;-34
2023/01/30 01:45:55;;;;;;;;;;;;;;;27.15;51.81;101334.63;5069930;27;66245;-34
2023/01/30 01:48:30;;;;;;;;;;;;;;;27.14;51.80;101327.56;5089483;27;69800;-35
2023/01/30 01:51:02;;;;;;;;;;;;;;;27.15;51.89;101340.00;5085791;27;65749;-34
2023/01/30 01:53:34;;;;;;;;;;;;;;;27.14;51.61;101337.50;5062685;28;69365;-34
2023/01/30 01:56:05;;;;;;;;;;;;;;;27.14;51.56;101332.97;5084970;27;66654;-35
2023/01/30 01:58:45;;;;;;;;;;;;;;;27.14;51.60;101335.66;5065673;27;70025;-35
2023/01/30 02:01:18;;;;;;;;;;;;;;;27.15;51.20;101342.69;5087165;27;66369;-35
2023/01/30 02:03:56;;;;;;;;;;;;;;;27.15;50.72;101340.00;5064480;28;70723;-37
2023/01/30 02:06:27;;;;;;;;;;;;;;;26.55;51.39;101245.88;5085374;27;66658;-40
2023/01/30 02:09:01;;;;;;;;;;;;;;;27.19;51.25;101340.50;5064855;27;69596;-37
2023/01/30 02:11:52;;;;;;;;;;;;;;;27.22;51.25;101342.00;5065529;27;66751;-37
2023/01/30 02:14:23;;;;;;;;;;;;;;;27.24;51.00;101346.19;5077351;27;70153;-37
2023/01/30 02:16:54;;;;;;;;;;;;;;;27.26;51.07;101344.13;5083822;27;66384;-36
2023/01/30 02:19:25;;;;;;;;;;;;;;;27.29;51.13;101340.25;5082205;27;69465;-37
2023/01/30 02:21:59;;;;;;;;;;;;;;;27.29;51.25;101341.06;5081975;27;67376;-36
2023/01/30 02:24:29;;;;;;;;;;;;;;;27.31;51.32;101343.59;5047663;28;69138;-36
2023/01/30 02:27:13;;;;;;;;;;;;;;;27.33;51.36;101336.16;5064511;28;66064;-37
2023/01/30 02:29:53;;;;;;;;;;;;;;;27.35;51.15;101339.50;5070062;28;69709;-36
2023/01/30 02:32:36;;;;;;;;;;;;;;;27.37;50.78;101337.47;5061630;27;66615;-37
2023/01/30 02:35:22;;;;;;;;;;;;;;;27.39;51.26;101330.88;5064800;27;69243;-39
2023/01/30 02:38:02;;;;;;;;;;;;;;;27.42;51.08;101323.44;5060072;27;66147;-37
2023/01/30 02:40:32;;;;;;;;;;;;;;;27.44;50.93;101327.59;5071861;27;70241;-36
2023/01/30 02:43:21;;;;;;;;;;;;;;;27.45;50.91;101326.59;5063679;28;65911;-38
2023/01/30 02:46:08;;;;;;;;;;;;;;;27.47;50.87;101319.16;5054976;28;70713;-36
2023/01/30 02:48:45;;;;;;;;;;;;;;;27.49;50.80;101313.56;5081045;27;66387;-37
2023/01/30 02:51:20;;;;;;;;;;;;;;;27.51;51.19;101315.06;5063991;28;70420;-37
2023/01/30 02:53:51;;;;;;;;;;;;;;;27.54;51.13;101313.84;5080601;27;66051;-40
2023/01/30 02:56:21;;;;;;;;;;;;;;;27.55;51.26;101308.28;5070905;27;69504;-37
2023/01/30 02:59:00;;;;;;;;;;;;;;;27.57;51.18;101317.00;5074165;28;66709;-36
2023/01/30 03:01:37;;;;;;;;;;;;;;;27.61;51.24;101318.31;5064693;27;69529;-36
2023/01/30 03:04:30;;;;;;;;;;;;;;;27.62;51.22;101314.59;5081336;27;66256;-37
2023/01/30 03:07:16;;;;;;;;;;;;;;;27.66;51.11;101314.22;5063355;28;70106;-42
2023/01/30 03:09:56;;;;;;;;;;;;;;;27.68;51.42;101314.84;5095860;27;66456;-37
2023/01/30 03:12:34;;;;;;;;;;;;;;;27.68;51.39;101307.59;5075295;27;70404;-39
2023/01/30 03:15:10;;;;;;;;;;;;;;;27.71;51.36;101311.78;5057604;27;65999;-38
2023/01/30 03:17:44;;;;;;;;;;;;;;;27.72;51.62;101302.66;5082283;27;69927;-37
2023/01/30 03:20:19;;;;;;;;;;;;;;;27.75;51.25;101307.69;5050396;28;65446;-38
2023/01/30 03:22:50;;;;;;;;;;;;;;;27.78;51.72;101293.84;5062325;28;70037;-39
2023/01/30 03:25:22;;;;;;;;;;;;;;;27.80;51.51;101289.09;5077718;27;66463;-36
2023/01/30 03:27:54;;;;;;;;;;;;;;;27.82;51.37;101287.91;5055967;27;69979;-38
2023/01/30 03:30:25;;;;;;;;;;;;;;;27.84;51.36;101285.03;5071746;27;66114;-38
2023/01/30 03:33:05;;;;;;;;;;;;;;;27.87;51.42;101271.16;5059712;27;70000;-38
2023/01/30 03:35:37;;;;;;;;;;;;;;;27.88;51.65;101270.13;5084476;27;65750;-37
2023/01/30 03:38:09;;;;;;;;;;;;;;;27.91;51.75;101264.34;5072572;27;69100;-37
2023/01/30 03:40:39;;;;;;;;;;;;;;;27.94;51.62;101268.53;5085380;27;66846;-36
2023/01/30 03:43:10;;;;;;;;;;;;;;;27.97;51.50;101258.22;5068453;27;69987;-37
2023/01/30 03:45:42;;;;;;;;;;;;;;;28.00;51.65;101257.81;5066678;27;66262;-38
2023/01/30 03:48:13;;;;;;;;;;;;;;;28.01;51.90;101248.69;5083405;27;70755;-37
2023/01/30 03:50:43;;;;;;;;;;;;;;;28.05;51.88;101244.59;5088063;27;64338;-37
2023/01/30 03:53:14;;;;;;;;;;;;;;;28.06;51.85;101235.47;5064969;28;70592;-42
2023/01/30 03:55:45;;;;;;;;;;;;;;;28.11;51.97;101236.75;5070010;28;66983;-37
2023/01/30 03:58:21;;;;;;;;;;;;;;;28.13;51.79;101229.31;5058778;27;70163;-36
2023/01/30 04:00:54;;;;;;;;;;;;;;;28.16;52.08;101223.53;5057643;27;66476;-38
2023/01/30 04:03:27;;;;;;;;;;;;;;;28.18;52.05;101222.31;5055308;27;69098;-37
2023/01/30 04:05:59;;;;;;;;;;;;;;;28.22;52.19;101214.66;5071160;27;66118;-39
2023/01/30 04:08:31;;;;;;;;;;;;;;;28.24;52.71;101205.34;5072076;27;69352;-37
2023/01/30 04:11:01;;;;;;;;;;;;;;;28.27;52.79;101199.53;5052379;27;65673;-37
2023/01/30 04:13:32;;;;;;;;;;;;;;;28.31;52.94;101188.38;5068690;27;70528;-37
2023/01/30 04:16:16;;;;;;;;;;;;;;;28.33;53.13;101191.69;5066902;27;66606;-39
2023/01/30 04:19:06;;;;;;;;;;;;;;;28.36;52.97;101185.91;5076928;27;70330;-38
2023/01/30 04:21:37;;;;;;;;;;;;;;;28.38;53.47;101176.59;5066833;28;66620;-38
2023/01/30 04:24:08;;;;;;;;;;;;;;;28.41;53.63;101168.09;5084154;27;70387;-38
2023/01/30 04:26:39;;;;;;;;;;;;;;;28.43;53.50;101168.78;5070632;27;65928;-38
2023/01/30 04:29:10;;;;;;;;;;;;;;;28.46;53.55;101165.69;5064874;27;70003;-38
2023/01/30 04:31:42;;;;;;;;;;;;;;;28.49;53.94;101153.66;5075794;27;66220;-39
2023/01/30 04:34:20;;;;;;;;;;;;;;;28.52;54.04;101154.09;5059004;27;70028;-38
2023/01/30 04:36:51;;;;;;;;;;;;;;;28.54;53.70;101145.00;5041931;27;65735;-37
2023/01/30 04:39:22;;;;;;;;;;;;;;;28.58;53.60;101140.84;5060174;27;70692;-38
2023/01/30 04:41:53;;;;;;;;;;;;;;;28.61;54.04;101140.44;5068358;27;66984;-41
2023/01/30 04:44:23;;;;;;;;;;;;;;;28.62;53.93;101126.75;5053992;27;70654;-37
2023/01/30 04:47:03;;;;;;;;;;;;;;;28.64;53.39;101123.84;5071644;27;66821;-38
2023/01/30 04:49:33;;;;;;;;;;;;;;;28.67;53.85;101118.09;5053027;27;70664;-37
2023/01/30 04:52:06;;;;;;;;;;;;;;;28.70;53.14;101104.19;5068233;27;64695;-37
2023/01/30 04:54:37;;;;;;;;;;;;;;;28.72;53.04;101092.16;5071151;27;70339;-39
2023/01/30 04:57:08;;;;;;;;;;;;;;;28.73;53.40;101090.28;5083377;27;66867;-36
2023/01/30 04:59:39;;;;;;;;;;;;;;;28.75;52.80;101082.78;5065261;27;70945;-40
2023/01/30 05:02:13;;;;;;;;;;;;;;;28.79;52.71;101084.06;5067131;27;66029;-40
2023/01/30 05:04:44;;;;;;;;;;;;;;;28.82;52.85;101074.75;5083249;27;68934;-37
2023/01/30 05:07:15;;;;;;;;;;;;;;;28.84;52.50;101065.41;5058979;27;66293;-38
2023/01/30 05:09:46;;;;;;;;;;;;;;;28.87;52.44;101065.00;5088858;27;69735;-35
2023/01/30 05:12:16;;;;;;;;;;;;;;;28.89;52.73;101052.13;5089878;27;66896;-38
2023/01/30 05:14:47;;;;;;;;;;;;;;;28.91;52.84;101039.25;5066946;27;70618;-38
2023/01/30 05:17:18;;;;;;;;;;;;;;;28.94;52.32;101038.81;5082334;27;66426;-39
2023/01/30 05:19:49;;;;;;;;;;;;;;;28.96;52.71;101028.66;5064942;27;69909;-37
2023/01/30 05:22:19;;;;;;;;;;;;;;;28.99;52.38;101023.91;5090300;27;65908;-38
2023/01/30 05:24:50;;;;;;;;;;;;;;;29.01;52.68;101017.25;5066926;27;70286;-42
2023/01/30 05:27:21;;;;;;;;;;;;;;;29.03;52.27;101015.22;5080752;27;65653;-36
2023/01/30 05:29:51;;;;;;;;;;;;;;;29.06;52.40;100997.75;5085578;27;69524;-38
2023/01/30 05:32:22;;;;;;;;;;;;;;;29.05;52.86;100991.53;5083210;27;67080;-36
2023/01/30 05:34:53;;;;;;;;;;;;;;;29.08;52.81;100993.81;5082188;27;70307;-36
2023/01/30 05:37:23;;;;;;;;;;;;;;;29.10;52.83;100982.81;5085306;27;66371;-41
2023/01/30 05:39:54;;;;;;;;;;;;;;;29.12;52.72;100975.34;5057366;27;69798;-37
2023/01/30 05:42:24;;;;;;;;;;;;;;;29.12;52.70;100959.13;5079762;27;66978;-37
2023/01/30 05:44:55;;;;;;;;;;;;;;;29.14;52.82;100946.22;5087511;27;70271;-38
2023/01/30 05:47:26;;;;;;;;;;;;;;;29.17;52.85;100946.66;5081550;27;66429;-37
2023/01/30 05:49:57;;;;;;;;;;;;;;;29.19;52.79;100959.97;5082048;27;70272;-39
2023/01/30 05:52:28;;;;;;;;;;;;;;;29.19;52.62;100943.75;5039177;27;66250;-37
2023/01/30 05:54:58;;;;;;;;;;;;;;;29.22;52.30;100954.13;5088611;27;70487;-37
2023/01/30 05:57:29;;;;;;;;;;;;;;;29.24;52.41;100952.06;5087606;27;65613;-39
2023/01/30 06:00:00;;;;;;;;;;;;;;;29.24;52.93;100946.66;5084799;27;70627;-38
2023/01/30 06:02:40;;;;;;;;;;;;;;;29.28;52.76;100941.66;5081086;27;67023;-38
2023/01/30 06:05:10;;;;;;;;;;;;;;;29.29;52.32;100927.13;5082516;27;69416;-37
2023/01/30 06:07:41;;;;;;;;;;;;;;;29.30;52.93;100924.22;5087381;27;65764;-37
2023/01/30 06:10:12;;;;;;;;;;;;;;;29.32;52.39;100922.13;5085203;27;70331;-37
2023/01/30 06:12:43;;;;;;;;;;;;;;;29.33;52.86;100907.56;5085100;27;66968;-37
2023/01/30 06:15:13;;;;;;;;;;;;;;;29.35;52.62;100910.09;5093001;27;70258;-38
2023/01/30 06:17:45;;;;;;;;;;;;;;;29.37;52.86;100897.22;5065369;27;66358;-37
2023/01/30 06:20:16;;;;;;;;;;;;;;;29.39;52.60;100895.97;5084563;27;69852;-39
2023/01/30 06:22:47;;;;;;;;;;;;;;;29.39;52.38;100890.56;5081519;27;66125;-38
2023/01/30 06:25:18;;;;;;;;;;;;;;;29.42;52.58;100878.50;5084866;27;69156;-38
2023/01/30 06:27:49;;;;;;;;;;;;;;;29.45;52.97;100874.50;5046792;28;66034;-38
2023/01/30 06:30:22;;;;;;;;;;;;;;;29.46;52.56;100873.50;5064433;28;69805;-37
2023/01/30 06:32:53;;;;;;;;;;;;;;;29.48;52.86;100866.00;5066734;27;66670;-37
2023/01/30 06:35:23;;;;;;;;;;;;;;;29.50;52.92;100858.50;5069885;27;68911;-38
2023/01/30 06:37:54;;;;;;;;;;;;;;;29.52;52.85;100861.81;5069228;27;66866;-38
2023/01/30 06:40:25;;;;;;;;;;;;;;;29.54;53.06;100857.06;5087736;27;70479;-38
2023/01/30 06:42:55;;;;;;;;;;;;;;;29.57;52.92;100859.31;5088827;27;66581;-38
2023/01/30 06:45:26;;;;;;;;;;;;;;;29.60;52.52;100861.59;5068066;27;70066;-40
2023/01/30 06:47:57;;;;;;;;;;;;;;;29.60;52.73;100856.19;5088561;27;65914;-38
2023/01/30 06:50:28;;;;;;;;;;;;;;;29.61;52.78;100844.31;5084797;27;70199;-37
2023/01/30 06:53:01;;;;;;;;;;;;;;;29.64;52.52;100843.09;5087688;27;66075;-37
2023/01/30 06:55:34;;;;;;;;;;;;;;;29.66;52.71;100841.84;5064570;27;70689;-38
2023/01/30 06:58:09;;;;;;;;;;;;;;;29.68;52.44;100838.94;5083625;27;67390;-38
2023/01/30 07:00:41;;;;;;;;;;;;;;;29.71;52.86;100835.81;5060668;27;68977;-36
2023/01/30 07:03:13;;;;;;;;;;;;;;;29.72;52.99;100838.28;5081644;27;67227;-37
2023/01/30 07:05:44;;;;;;;;;;;;;;;29.74;52.35;100825.41;5082689;27;70513;-37
2023/01/30 07:08:15;;;;;;;;;;;;;;;29.76;52.39;100825.19;5087425;27;66882;-38
2023/01/30 07:10:46;;;;;;;;;;;;;;;29.78;52.50;100823.09;5082602;27;69853;-38
2023/01/30 07:13:17;;;;;;;;;;;;;;;29.81;52.30;100828.91;5081260;27;67437;-39
2023/01/30 07:15:47;;;;;;;;;;;;;;;29.83;52.30;100832.22;5054299;28;69313;-37
2023/01/30 07:18:21;;;;;;;;;;;;;;;29.86;52.72;100835.53;5082375;27;66979;-38
2023/01/30 07:20:52;;;;;;;;;;;;;;;29.88;52.98;100833.47;5082148;27;70116;-38
2023/01/30 07:23:22;;;;;;;;;;;;;;;29.90;52.37;100831.38;5064414;28;66370;-38
2023/01/30 07:25:54;;;;;;;;;;;;;;;29.94;52.56;100832.59;5084075;27;69916;-38
2023/01/30 07:28:24;;;;;;;;;;;;;;;29.95;52.09;100828.84;5081071;27;66054;-40
2023/01/30 07:30:58;;;;;;;;;;;;;;;29.97;52.52;100826.75;5085448;27;70124;-37
2023/01/30 07:33:29;;;;;;;;;;;;;;;30.01;52.36;100828.00;5090431;27;66093;-37
2023/01/30 07:36:00;;;;;;;;;;;;;;;30.01;52.44;100820.72;5081652;27;70168;-39
2023/01/30 07:38:31;;;;;;;;;;;;;;;30.05;52.42;100821.91;5080972;27;65880;-38
2023/01/30 07:41:01;;;;;;;;;;;;;;;30.09;52.47;100824.19;5082427;27;70517;-38
2023/01/30 07:43:32;;;;;;;;;;;;;;;30.11;52.06;100822.94;5082566;27;67165;-38
2023/01/30 07:46:03;;;;;;;;;;;;;;;30.13;52.50;100834.38;5082697;27;70077;-37
2023/01/30 07:48:34;;;;;;;;;;;;;;;30.17;52.67;100830.22;5086776;27;66651;-36
2023/01/30 07:51:04;;;;;;;;;;;;;;;30.22;52.04;100818.75;5081737;27;70702;-36
2023/01/30 07:53:35;;;;;;;;;;;;;;;30.23;52.11;100818.53;5084308;27;66623;-38
2023/01/30 07:56:07;;;;;;;;;;;;;;;30.27;52.51;100822.47;5081750;27;70082;-38
2023/01/30 07:58:38;;;;;;;;;;;;;;;30.30;52.09;100814.97;5062213;27;66394;-37
2023/01/30 08:01:08;;;;;;;;;;;;;;;30.31;52.63;100822.84;5084442;27;70715;-37
2023/01/30 08:03:39;;;;;;;;;;;;;;;30.33;52.09;100817.22;5086976;27;65916;-37
2023/01/30 08:06:11;;;;;;;;;;;;;;;30.36;52.16;100819.50;5089547;27;70559;-37
2023/01/30 08:08:42;;;;;;;;;;;;;;;30.38;51.68;100820.13;5063365;27;66300;-38
2023/01/30 08:11:12;;;;;;;;;;;;;;;30.41;51.73;100825.09;5087620;27;70288;-37
2023/01/30 08:13:43;;;;;;;;;;;;;;;30.43;52.00;100825.69;5085701;27;67083;-37
2023/01/30 08:16:14;;;;;;;;;;;;;;;30.45;51.54;100823.59;5084941;27;70172;-37
2023/01/30 08:18:44;;;;;;;;;;;;;;;30.46;51.93;100822.56;5078098;27;67109;-38
2023/01/30 08:21:15;;;;;;;;;;;;;;;30.49;51.49;100822.13;5087639;27;70344;-37
2023/01/30 08:23:46;;;;;;;;;;;;;;;30.50;51.90;100819.16;5087156;27;65260;-37
2023/01/30 08:26:17;;;;;;;;;;;;;;;30.54;51.88;100816.88;5065383;27;70450;-37
2023/01/30 08:28:48;;;;;;;;;;;;;;;30.56;51.87;100809.34;5082434;27;66210;-37
2023/01/30 08:31:19;;;;;;;;;;;;;;;30.58;51.43;100811.84;5081196;27;69773;-38
2023/01/30 08:33:49;;;;;;;;;;;;;;;30.59;51.76;100814.34;5083233;27;65516;-38
2023/01/30 08:36:20;;;;;;;;;;;;;;;30.62;51.67;100819.31;5066208;27;71036;-39
2023/01/30 08:38:51;;;;;;;;;;;;;;;30.64;51.09;100816.38;5085704;27;66160;-37
2023/01/30 08:41:21;;;;;;;;;;;;;;;30.65;51.24;100824.28;5085760;27;70871;-40
2023/01/30 08:43:52;;;;;;;;;;;;;;;30.68;51.19;100814.91;5086149;27;65716;-38
2023/01/30 08:46:23;;;;;;;;;;;;;;;30.69;51.43;100819.25;5039603;28;69617;-37
2023/01/30 08:48:54;;;;;;;;;;;;;;;30.71;51.42;100817.97;5085336;27;66184;-39
2023/01/30 08:51:24;;;;;;;;;;;;;;;30.71;51.33;100812.56;5067130;27;69865;-38
2023/01/30 08:53:55;;;;;;;;;;;;;;;30.75;51.60;100817.53;5092543;27;66287;-36
2023/01/30 08:56:29;;;;;;;;;;;;;;;30.76;51.59;100808.34;5087022;27;62577;-39
2023/01/30 08:59:00;;;;;;;;;;;;;;;30.79;51.12;100813.34;5064215;27;66177;-38
2023/01/30 09:01:30;;;;;;;;;;;;;;;30.80;51.24;100809.63;5068589;28;70243;-39
2023/01/30 09:04:01;;;;;;;;;;;;;;;30.84;51.40;100810.81;5093382;27;66799;-41
2023/01/30 09:06:32;;;;;;;;;;;;;;;30.86;51.18;100811.44;5082948;27;70497;-37
2023/01/30 09:09:03;;;;;;;;;;;;;;;30.89;51.35;100808.28;5084733;27;67102;-39
2023/01/30 09:11:33;;;;;;;;;;;;;;;30.92;51.67;100813.25;5070512;27;69906;-37
2023/01/30 09:14:04;;;;;;;;;;;;;;;30.94;51.95;100816.56;5091183;27;65464;-40
2023/01/30 09:16:35;;;;;;;;;;;;;;;30.96;52.13;100817.19;5089422;27;69540;-37
2023/01/30 09:19:05;;;;;;;;;;;;;;;30.98;52.29;100816.94;5090222;27;66726;-39
2023/01/30 09:21:37;;;;;;;;;;;;;;;30.99;52.35;100819.44;5091765;27;70780;-38
2023/01/30 09:24:08;;;;;;;;;;;;;;;30.99;52.42;100813.22;5082277;27;66654;-38
2023/01/30 09:26:43;;;;;;;;;;;;;;;30.74;54.36;100822.13;5082880;27;70002;-38
2023/01/30 09:29:14;;;;;;;;;;;;;;;30.58;55.29;100823.50;5053690;27;66391;-36
2023/01/30 09:31:45;;;;;;;;;;;;;;;30.42;56.20;100818.63;5066160;27;69304;-37
2023/01/30 09:34:16;;;;;;;;;;;;;;;30.37;56.30;100815.72;5082086;27;66630;-37
2023/01/30 09:36:47;;;;;;;;;;;;;;;30.31;56.45;100820.13;5081621;27;70593;-40
2023/01/30 09:39:18;;;;;;;;;;;;;;;30.25;56.24;100821.00;5082353;27;66328;-38
2023/01/30 09:41:55;;;;;;;;;;;;;;;30.18;56.25;100834.56;5088047;27;70344;-37
2023/01/30 09:44:31;;;;;;;;;;;;;;;30.14;56.67;100835.19;5069203;27;66160;-37
2023/01/30 09:47:19;;;;;;;;;;;;;;;30.13;56.86;100839.78;5080807;27;70622;-39
2023/01/30 09:49:50;;;;;;;;;;;;;;;30.15;57.21;100842.28;5077644;27;66745;-36
2023/01/30 09:52:27;;;;;;;;;;;;;;;30.15;57.24;100845.81;5054655;28;69814;-37
2023/01/30 09:55:18;;;;;;;;;;;;;;;30.14;57.21;100849.56;5037659;27;66739;-37
2023/01/30 09:57:50;;;;;;;;;;;;;;;30.15;56.66;100848.53;5081115;27;70243;-35
2023/01/30 10:00:24;;;;;;;;;;;;;;;30.17;57.14;100851.84;5073708;27;66942;-39
2023/01/30 10:03:04;;;;;;;;;;;;;;;30.19;56.94;100857.03;5077724;27;69591;-37
2023/01/30 10:05:43;;;;;;;;;;;;;;;30.19;57.34;100863.25;5074992;28;67018;-38
2023/01/30 10:08:32;;;;;;;;;;;;;;;30.14;56.93;100865.78;5080076;28;69795;-37
2023/01/30 10:11:05;;;;;;;;;;;;;;;30.27;57.95;100865.75;5082246;28;66194;-37
2023/01/30 10:13:53;;;;;;;;;;;;;;;30.25;58.06;100867.00;5079436;28;70480;-38
2023/01/30 10:16:41;;;;;;;;;;;;;;;30.20;58.97;100873.06;5081542;27;66702;-37
2023/01/30 10:19:50;;;;;;;;;;;;;;;30.20;59.17;100886.59;5048095;27;70434;-37
2023/01/30 10:22:21;;;;;;;;;;;;;;;30.20;60.68;100877.63;5000797;28;66009;-37
2023/01/30 10:25:06;;;;;;;;;;;;;;;30.24;60.35;100887.84;4998514;28;69880;-36
2023/01/30 10:27:45;;;;;;;;;;;;;;;30.40;59.90;100891.09;5052631;27;65942;-38
2023/01/30 10:30:16;;;;;;;;;;;;;;;30.47;58.63;100894.56;5082179;27;70462;-37
2023/01/30 10:32:51;;;;;;;;;;;;;;;30.54;57.57;100891.84;5040467;28;66548;-38
2023/01/30 10:35:24;;;;;;;;;;;;;;;30.57;57.51;100892.22;5047882;27;69679;-38
2023/01/30 10:37:59;;;;;;;;;;;;;;;30.59;56.93;100906.38;5083006;27;66949;-38
2023/01/30 10:40:39;;;;;;;;;;;;;;;30.62;56.78;100905.94;5083302;27;70246;-39
2023/01/30 10:43:17;;;;;;;;;;;;;;;30.65;56.23;100910.09;5082039;28;66751;-37
2023/01/30 10:46:06;;;;;;;;;;;;;;;30.67;56.10;100918.81;5070428;28;69899;-38
2023/01/30 10:48:43;;;;;;;;;;;;;;;30.65;56.00;100916.34;5081697;27;67027;-37
2023/01/30 10:51:18;;;;;;;;;;;;;;;30.66;55.33;100918.00;5056281;28;69510;-38
2023/01/30 10:53:49;;;;;;;;;;;;;;;30.67;55.67;100924.22;5083165;27;65636;-38
2023/01/30 10:56:19;;;;;;;;;;;;;;;30.65;55.57;100919.06;5048472;27;69780;-38
2023/01/30 10:59:02;;;;;;;;;;;;;;;30.67;55.48;100935.06;5084329;27;66828;-38
2023/01/30 11:02:05;;;;;;;;;;;;;;;30.65;55.10;100938.00;5083619;27;70748;-38
2023/01/30 11:04:41;;;;;;;;;;;;;;;30.64;54.98;100933.63;5036733;27;65604;-39
2023/01/30 11:07:13;;;;;;;;;;;;;;;30.64;55.28;100933.63;5077952;27;70596;-38
2023/01/30 11:09:47;;;;;;;;;;;;;;;30.63;54.87;100937.38;5086221;27;65195;-38
2023/01/30 11:12:18;;;;;;;;;;;;;;;30.61;55.03;100936.75;5082504;27;70620;-37
2023/01/30 11:14:57;;;;;;;;;;;;;;;30.61;55.07;100939.47;5082498;27;67080;-39
2023/01/30 11:17:48;;;;;;;;;;;;;;;30.59;54.51;100938.88;5070046;27;70129;-39
2023/01/30 11:20:23;;;;;;;;;;;;;;;30.57;55.02;100946.38;5085615;27;66523;-41
2023/01/30 11:23:05;;;;;;;;;;;;;;;30.57;54.99;100951.78;5089757;27;69851;-39
2023/01/30 11:25:53;;;;;;;;;;;;;;;30.55;54.64;100948.47;5089866;27;65829;-38
2023/01/30 11:28:45;;;;;;;;;;;;;;;30.55;54.67;100964.72;5082683;27;69710;-39
2023/01/30 11:31:21;;;;;;;;;;;;;;;30.53;54.99;100969.50;5087920;27;66251;-38
2023/01/30 11:34:14;;;;;;;;;;;;;;;30.50;55.00;100972.63;5085440;27;70480;-38
2023/01/30 11:36:46;;;;;;;;;;;;;;;30.29;55.18;100971.09;5064449;27;65090;-36
2023/01/30 11:39:17;;;;;;;;;;;;;;;30.13;55.80;100977.75;5089510;27;69898;-37
2023/01/30 11:41:57;;;;;;;;;;;;;;;30.06;56.49;100982.34;5085337;27;66563;-36
2023/01/30 11:44:32;;;;;;;;;;;;;;;30.00;57.85;100997.53;5085436;27;70565;-39
2023/01/30 11:47:08;;;;;;;;;;;;;;;29.98;58.58;100993.41;5063970;27;66400;-38
2023/01/30 11:49:42;;;;;;;;;;;;;;;29.93;58.05;100993.22;5086080;27;68279;-37
2023/01/30 11:52:17;;;;;;;;;;;;;;;29.91;59.29;101000.69;5090487;27;65562;-39
2023/01/30 11:54:48;;;;;;;;;;;;;;;29.93;59.35;101004.03;5079379;27;69360;-39
2023/01/30 11:57:19;;;;;;;;;;;;;;;29.93;60.81;101014.84;5085187;27;66631;-38
2023/01/30 11:59:57;;;;;;;;;;;;;;;29.95;60.56;101018.16;5086998;27;69158;-37
2023/01/30 12:02:32;;;;;;;;;;;;;;;29.95;61.35;101023.56;5082838;27;66007;-39
2023/01/30 12:05:05;;;;;;;;;;;;;;;29.94;61.17;101027.31;5083201;27;70299;-39
2023/01/30 12:07:36;;;;;;;;;;;;;;;29.92;61.24;101024.84;5051397;27;67218;-40
2023/01/30 12:10:29;;;;;;;;;;;;;;;29.94;61.63;101030.03;5043950;27;70676;-39
2023/01/30 12:13:02;;;;;;;;;;;;;;;29.94;61.44;101038.16;5080150;27;66446;-37
2023/01/30 12:15:34;;;;;;;;;;;;;;;29.93;61.60;101031.09;5083179;27;70360;-38
2023/01/30 12:18:20;;;;;;;;;;;;;;;29.93;62.16;101036.50;5047172;27;64689;-38
2023/01/30 12:21:02;;;;;;;;;;;;;;;29.93;61.98;101039.19;5080186;27;70398;-41
2023/01/30 12:24:01;;;;;;;;;;;;;;;29.91;62.45;101038.56;5081300;27;65961;-38
2023/01/30 12:26:33;;;;;;;;;;;;;;;29.93;62.47;101047.31;5013982;27;70763;-39
2023/01/30 12:29:03;;;;;;;;;;;;;;;29.91;62.84;101057.50;5079905;27;65940;-39
2023/01/30 12:31:45;;;;;;;;;;;;;;;29.90;62.38;101056.66;5065662;27;70325;-40
2023/01/30 12:34:16;;;;;;;;;;;;;;;29.90;62.19;101063.97;5081128;27;66592;-40
2023/01/30 12:37:07;;;;;;;;;;;;;;;29.89;62.97;101062.28;5077425;27;70119;-41
2023/01/30 12:39:47;;;;;;;;;;;;;;;29.87;62.73;101069.78;5051187;28;65979;-38
2023/01/30 12:42:49;;;;;;;;;;;;;;;29.86;63.44;101074.34;5082078;27;70379;-40
2023/01/30 12:45:29;;;;;;;;;;;;;;;29.83;63.22;101075.59;5004526;27;66434;-39
2023/01/30 12:48:00;;;;;;;;;;;;;;;29.79;63.00;101084.34;5080491;27;70275;-39
2023/01/30 12:50:33;;;;;;;;;;;;;;;29.73;62.80;101079.78;5078556;27;68023;-39
2023/01/30 12:53:04;;;;;;;;;;;;;;;29.71;63.15;101095.38;5084708;27;70147;-39
2023/01/30 12:55:40;;;;;;;;;;;;;;;29.70;62.93;101094.53;5083016;27;66239;-43
2023/01/30 12:58:16;;;;;;;;;;;;;;;29.65;62.75;101099.72;5070738;28;70326;-40
2023/01/30 13:00:57;;;;;;;;;;;;;;;29.62;62.52;101092.00;5083250;27;66627;-38
2023/01/30 13:03:34;;;;;;;;;;;;;;;29.59;63.15;101103.22;5084446;27;69852;-38
2023/01/30 13:06:23;;;;;;;;;;;;;;;29.56;62.79;101100.91;5089661;27;67115;-39
2023/01/30 13:09:12;;;;;;;;;;;;;;;29.54;63.02;101108.41;5078215;27;69787;-38
2023/01/30 13:11:57;;;;;;;;;;;;;;;29.53;63.06;101101.34;5082320;27;66615;-42
2023/01/30 13:14:39;;;;;;;;;;;;;;;29.49;63.18;101110.91;5080478;27;70158;-38
2023/01/30 13:17:10;;;;;;;;;;;;;;;29.46;62.91;101106.75;5074063;27;66967;-37
2023/01/30 13:19:40;;;;;;;;;;;;;;;29.45;63.18;101115.03;5082690;27;70253;-41